»·PEaware :: AMF1941 KSBP-KBUR

AMF1941 :: KSBP-KBUR

FLIGHT INFORMATION

Flight Status: Arrived
Operator: Ameriflight
More flights by this operator :: More flights under this callsign
Pilot: Nickolaus B. (17683)
Aircraft: BEECH AIRCRAFT BEECH AIRLINER
(B190)
More flights by this aircraft type
Origin: KSBP San Luis Co Regl
United States
Destination: KBUR Bob Hope-Burbank
United States
More flights between these airports :: More routes between these airports
Route: +RZS V386 FIM FERN7
File this flight plan on PilotEdge
Remarks:
Altitude:
(Current/Filed)
9,000ft
Speed:
(Current/Filed)
220kts
Departed: 08-May-18 06:47 PM
Arrived: 08-May-18 07:26 PM
Distance/Time
Traveled:
129nm/0:39
Distance/Time
To Go:
Arrived

Flight Plot

Page will automatically refresh every two minutes.

Flight plan parsing failed; only flown route is shown


Map Options




Map Legend


Flown Route
Filed Route
Departure Airport
Arrival Airport
Navaid (VOR, NDB)
Fix

Horizontal Profiles

Position Reports

Time Latitude Longitude Heading Altitude Ground
Speed
08-May-18 18:29 35.238073 -120.638596 270 198ft 0kts
08-May-18 18:30 35.238073 -120.638596 270 198ft 0kts
08-May-18 18:31 35.238073 -120.638596 270 198ft 0kts
08-May-18 18:32 35.238073 -120.638596 270 198ft 0kts
08-May-18 18:33 35.238073 -120.638596 270 198ft 0kts
08-May-18 18:34 35.238073 -120.638596 270 198ft 0kts
08-May-18 18:35 35.238073 -120.638596 270 198ft 0kts
08-May-18 18:36 35.238073 -120.638596 270 198ft 0kts
08-May-18 18:37 35.238073 -120.638596 270 198ft 0kts
08-May-18 18:38 35.238073 -120.638596 270 198ft 0kts
08-May-18 18:39 35.238073 -120.638596 270 198ft 0kts
08-May-18 18:40 35.237577 -120.638980 181 196ft 6kts
08-May-18 18:41 35.236564 -120.637734 125 201ft 4kts
08-May-18 18:42 35.234754 -120.634522 124 212ft 15kts
08-May-18 18:43 35.233262 -120.632402 199 214ft 0kts
08-May-18 18:44 35.233262 -120.632402 199 214ft 0kts
08-May-18 18:45 35.232991 -120.632572 212 213ft 4kts
08-May-18 18:46 35.232764 -120.632997 301 212ft 0kts
08-May-18 18:47 35.239481 -120.644592 304 421ft 133kts
08-May-18 18:48 35.264245 -120.685826 304 2327ft 171kts
08-May-18 18:49 35.292053 -120.736018 304 3950ft 185kts
08-May-18 18:50 35.276559 -120.778527 163 5725ft 216kts
08-May-18 18:51 35.251603 -120.718290 107 7731ft 206kts
08-May-18 18:52 35.221689 -120.658703 129 9012ft 231kts
08-May-18 18:53 35.175531 -120.596581 133 9004ft 267kts
08-May-18 18:54 35.123261 -120.530809 134 9002ft 275kts
08-May-18 18:55 35.070960 -120.465613 134 9001ft 275kts
08-May-18 18:56 35.018404 -120.400285 134 9001ft 275kts
08-May-18 18:57 34.967057 -120.336588 134 9000ft 277kts
08-May-18 18:58 34.914122 -120.271055 134 9001ft 278kts
08-May-18 18:59 34.861993 -120.206593 133 8994ft 280kts
08-May-18 19:00 34.807849 -120.139727 134 8985ft 280kts
08-May-18 19:01 34.754996 -120.074684 134 8982ft 281kts
08-May-18 19:02 34.700014 -120.007159 134 8980ft 281kts
08-May-18 19:03 34.645758 -119.940624 134 8975ft 281kts
08-May-18 19:04 34.591726 -119.874498 135 8968ft 280kts
08-May-18 19:05 34.537464 -119.808223 135 8960ft 279kts
08-May-18 19:06 34.500765 -119.729700 100 8958ft 277kts
08-May-18 19:07 34.485261 -119.638191 100 8954ft 277kts
08-May-18 19:08 34.470173 -119.549417 100 8955ft 277kts
08-May-18 19:09 34.454772 -119.459324 100 8996ft 276kts
08-May-18 19:10 34.439239 -119.368838 100 8997ft 277kts
08-May-18 19:11 34.425510 -119.289204 100 8998ft 277kts
08-May-18 19:12 34.409835 -119.198848 100 8996ft 276kts
08-May-18 19:13 34.394578 -119.110393 97 8992ft 274kts
08-May-18 19:14 34.381054 -119.021466 100 8999ft 275kts
08-May-18 19:15 34.365565 -118.932310 101 9000ft 277kts
08-May-18 19:16 34.350217 -118.841681 100 8624ft 277kts
08-May-18 19:17 34.336086 -118.751153 101 7435ft 271kts
08-May-18 19:18 34.325137 -118.663414 97 6248ft 264kts
08-May-18 19:19 34.320751 -118.578856 92 5076ft 253kts
08-May-18 19:20 34.319121 -118.499525 92 3892ft 232kts
08-May-18 19:21 34.317613 -118.429646 92 2984ft 183kts
08-May-18 19:22 34.302978 -118.388528 152 2611ft 134kts
08-May-18 19:23 34.267270 -118.375564 170 1954ft 135kts
08-May-18 19:24 34.232856 -118.365778 170 1295ft 123kts
08-May-18 19:25 34.203819 -118.358130 166 734ft 59kts
08-May-18 19:26 34.199330 -118.358025 344 717ft 7kts
08-May-18 19:27 34.202415 -118.358877 346 731ft 13kts
08-May-18 19:28 34.201810 -118.359952 169 731ft 0kts
08-May-18 19:29 34.201805 -118.359951 169 731ft 0kts
08-May-18 19:30 34.201805 -118.359951 169 731ft 0kts
08-May-18 19:31 34.201805 -118.359951 169 731ft 0kts
08-May-18 19:32 34.201805 -118.359951 169 731ft 0kts

Navigation Log

Ident Type
Flight plan parsing failed, navigation log unavailable